sensor_id;sensor_type;location;lat;lon;timestamp;P1;durP1;ratioP1;P2;durP2;ratioP2
22429;SDS011;11382;48.086;11.632;2023-06-19T00:01:57;12.55;;;10.27;;
22429;SDS011;11382;48.086;11.632;2023-06-19T00:05:11;13.23;;;10.27;;
22429;SDS011;11382;48.086;11.632;2023-06-19T00:07:40;16.15;;;10.65;;
22429;SDS011;11382;48.086;11.632;2023-06-19T00:10:22;12.20;;;10.10;;
22429;SDS011;11382;48.086;11.632;2023-06-19T00:12:52;12.65;;;10.48;;
22429;SDS011;11382;48.086;11.632;2023-06-19T00:15:21;12.77;;;10.93;;
22429;SDS011;11382;48.086;11.632;2023-06-19T00:17:59;14.05;;;11.15;;
22429;SDS011;11382;48.086;11.632;2023-06-19T00:20:31;11.63;;;10.20;;
22429;SDS011;11382;48.086;11.632;2023-06-19T00:22:59;16.50;;;11.32;;
22429;SDS011;11382;48.086;11.632;2023-06-19T00:25:37;12.63;;;10.80;;
22429;SDS011;11382;48.086;11.632;2023-06-19T00:28:07;13.32;;;10.75;;
22429;SDS011;11382;48.086;11.632;2023-06-19T00:30:42;14.50;;;10.07;;
22429;SDS011;11382;48.086;11.632;2023-06-19T00:33:13;11.65;;;9.80;;
22429;SDS011;11382;48.086;11.632;2023-06-19T00:35:45;14.88;;;10.85;;
22429;SDS011;11382;48.086;11.632;2023-06-19T00:38:17;13.25;;;9.68;;
22429;SDS011;11382;48.086;11.632;2023-06-19T00:40:45;12.70;;;10.35;;
22429;SDS011;11382;48.086;11.632;2023-06-19T00:43:13;13.70;;;10.75;;
22429;SDS011;11382;48.086;11.632;2023-06-19T00:45:42;12.48;;;9.95;;
22429;SDS011;11382;48.086;11.632;2023-06-19T00:48:13;12.88;;;9.88;;
22429;SDS011;11382;48.086;11.632;2023-06-19T00:50:44;13.57;;;11.00;;
22429;SDS011;11382;48.086;11.632;2023-06-19T00:53:16;13.27;;;10.45;;
22429;SDS011;11382;48.086;11.632;2023-06-19T00:55:46;13.57;;;10.98;;
22429;SDS011;11382;48.086;11.632;2023-06-19T00:58:19;13.07;;;10.50;;
22429;SDS011;11382;48.086;11.632;2023-06-19T01:00:48;12.00;;;10.48;;
22429;SDS011;11382;48.086;11.632;2023-06-19T01:03:34;14.52;;;10.75;;
22429;SDS011;11382;48.086;11.632;2023-06-19T01:06:05;12.77;;;10.35;;
22429;SDS011;11382;48.086;11.632;2023-06-19T01:08:41;13.50;;;10.98;;
22429;SDS011;11382;48.086;11.632;2023-06-19T01:11:15;14.02;;;10.00;;
22429;SDS011;11382;48.086;11.632;2023-06-19T01:13:53;12.57;;;10.65;;
22429;SDS011;11382;48.086;11.632;2023-06-19T01:16:24;14.07;;;10.05;;
22429;SDS011;11382;48.086;11.632;2023-06-19T01:18:53;14.10;;;10.52;;
22429;SDS011;11382;48.086;11.632;2023-06-19T01:21:25;13.48;;;10.55;;
22429;SDS011;11382;48.086;11.632;2023-06-19T01:23:56;10.70;;;9.50;;
22429;SDS011;11382;48.086;11.632;2023-06-19T01:26:26;12.00;;;9.82;;
22429;SDS011;11382;48.086;11.632;2023-06-19T01:28:56;12.75;;;10.43;;
22429;SDS011;11382;48.086;11.632;2023-06-19T01:31:26;10.93;;;9.55;;
22429;SDS011;11382;48.086;11.632;2023-06-19T01:33:58;14.18;;;10.05;;
22429;SDS011;11382;48.086;11.632;2023-06-19T01:36:28;12.85;;;10.05;;
22429;SDS011;11382;48.086;11.632;2023-06-19T01:39:00;13.80;;;9.77;;
22429;SDS011;11382;48.086;11.632;2023-06-19T01:41:30;12.45;;;10.00;;
22429;SDS011;11382;48.086;11.632;2023-06-19T01:43:59;12.98;;;10.60;;
22429;SDS011;11382;48.086;11.632;2023-06-19T01:46:28;11.98;;;10.38;;
22429;SDS011;11382;48.086;11.632;2023-06-19T01:48:56;13.88;;;10.45;;
22429;SDS011;11382;48.086;11.632;2023-06-19T01:51:25;11.50;;;9.75;;
22429;SDS011;11382;48.086;11.632;2023-06-19T01:53:55;12.25;;;9.77;;
22429;SDS011;11382;48.086;11.632;2023-06-19T01:56:25;13.82;;;10.63;;
22429;SDS011;11382;48.086;11.632;2023-06-19T01:58:53;11.77;;;9.68;;
22429;SDS011;11382;48.086;11.632;2023-06-19T02:01:22;13.65;;;10.35;;
22429;SDS011;11382;48.086;11.632;2023-06-19T02:03:50;13.10;;;10.45;;
22429;SDS011;11382;48.086;11.632;2023-06-19T02:06:19;12.88;;;9.77;;
22429;SDS011;11382;48.086;11.632;2023-06-19T02:08:47;10.93;;;9.63;;
22429;SDS011;11382;48.086;11.632;2023-06-19T02:11:17;12.70;;;10.18;;
22429;SDS011;11382;48.086;11.632;2023-06-19T02:13:47;12.90;;;10.18;;
22429;SDS011;11382;48.086;11.632;2023-06-19T02:16:15;12.68;;;9.73;;
22429;SDS011;11382;48.086;11.632;2023-06-19T02:18:44;12.25;;;9.95;;
22429;SDS011;11382;48.086;11.632;2023-06-19T02:21:13;11.68;;;9.27;;
22429;SDS011;11382;48.086;11.632;2023-06-19T02:23:41;12.00;;;10.05;;
22429;SDS011;11382;48.086;11.632;2023-06-19T02:26:09;12.68;;;9.30;;
22429;SDS011;11382;48.086;11.632;2023-06-19T02:28:38;11.80;;;9.90;;
22429;SDS011;11382;48.086;11.632;2023-06-19T02:31:07;11.45;;;9.55;;
22429;SDS011;11382;48.086;11.632;2023-06-19T02:33:37;11.82;;;9.75;;
22429;SDS011;11382;48.086;11.632;2023-06-19T02:36:05;13.20;;;11.00;;
22429;SDS011;11382;48.086;11.632;2023-06-19T02:38:33;286.52;;;263.10;;
22429;SDS011;11382;48.086;11.632;2023-06-19T02:41:02;13.38;;;10.70;;
22429;SDS011;11382;48.086;11.632;2023-06-19T02:43:31;129.40;;;87.72;;
22429;SDS011;11382;48.086;11.632;2023-06-19T02:46:00;18.25;;;10.52;;
22429;SDS011;11382;48.086;11.632;2023-06-19T02:48:29;12.00;;;9.60;;
22429;SDS011;11382;48.086;11.632;2023-06-19T02:50:58;51.28;;;16.45;;
22429;SDS011;11382;48.086;11.632;2023-06-19T02:53:26;12.30;;;10.05;;
22429;SDS011;11382;48.086;11.632;2023-06-19T02:55:55;416.08;;;40.75;;
22429;SDS011;11382;48.086;11.632;2023-06-19T02:58:23;12.05;;;9.63;;
22429;SDS011;11382;48.086;11.632;2023-06-19T03:00:54;12.65;;;10.20;;
22429;SDS011;11382;48.086;11.632;2023-06-19T03:03:27;12.07;;;9.80;;
22429;SDS011;11382;48.086;11.632;2023-06-19T03:05:56;279.25;;;34.67;;
22429;SDS011;11382;48.086;11.632;2023-06-19T03:08:26;172.95;;;23.80;;
22429;SDS011;11382;48.086;11.632;2023-06-19T03:10:57;12.32;;;9.90;;
22429;SDS011;11382;48.086;11.632;2023-06-19T03:13:25;74.10;;;12.20;;
22429;SDS011;11382;48.086;11.632;2023-06-19T03:15:54;14.63;;;10.70;;
22429;SDS011;11382;48.086;11.632;2023-06-19T03:18:22;15.68;;;10.35;;
22429;SDS011;11382;48.086;11.632;2023-06-19T03:20:52;12.95;;;10.65;;
22429;SDS011;11382;48.086;11.632;2023-06-19T03:23:24;231.43;;;20.00;;
22429;SDS011;11382;48.086;11.632;2023-06-19T03:25:52;194.55;;;60.65;;
22429;SDS011;11382;48.086;11.632;2023-06-19T03:28:21;11.05;;;9.85;;
22429;SDS011;11382;48.086;11.632;2023-06-19T03:30:50;12.80;;;10.35;;
22429;SDS011;11382;48.086;11.632;2023-06-19T03:33:21;169.35;;;28.23;;
22429;SDS011;11382;48.086;11.632;2023-06-19T03:35:51;299.73;;;32.05;;
22429;SDS011;11382;48.086;11.632;2023-06-19T03:38:35;353.80;;;46.28;;
22429;SDS011;11382;48.086;11.632;2023-06-19T03:41:03;11.88;;;10.07;;
22429;SDS011;11382;48.086;11.632;2023-06-19T03:43:31;11.38;;;9.55;;
22429;SDS011;11382;48.086;11.632;2023-06-19T03:46:02;11.77;;;9.43;;
22429;SDS011;11382;48.086;11.632;2023-06-19T03:48:34;13.18;;;10.43;;
22429;SDS011;11382;48.086;11.632;2023-06-19T03:51:03;83.97;;;12.55;;
22429;SDS011;11382;48.086;11.632;2023-06-19T03:53:31;42.70;;;16.50;;
22429;SDS011;11382;48.086;11.632;2023-06-19T03:56:01;146.30;;;104.50;;
22429;SDS011;11382;48.086;11.632;2023-06-19T03:58:31;11.30;;;9.15;;
22429;SDS011;11382;48.086;11.632;2023-06-19T04:01:01;11.88;;;9.90;;
22429;SDS011;11382;48.086;11.632;2023-06-19T04:03:29;11.93;;;9.38;;
22429;SDS011;11382;48.086;11.632;2023-06-19T04:05:57;11.15;;;9.45;;
22429;SDS011;11382;48.086;11.632;2023-06-19T04:08:25;10.43;;;9.20;;
22429;SDS011;11382;48.086;11.632;2023-06-19T04:10:56;10.90;;;9.27;;
22429;SDS011;11382;48.086;11.632;2023-06-19T04:13:28;12.30;;;9.55;;
22429;SDS011;11382;48.086;11.632;2023-06-19T04:15:56;11.70;;;9.27;;
22429;SDS011;11382;48.086;11.632;2023-06-19T04:18:26;11.05;;;9.70;;
22429;SDS011;11382;48.086;11.632;2023-06-19T04:20:55;11.60;;;9.88;;
22429;SDS011;11382;48.086;11.632;2023-06-19T04:23:23;13.52;;;9.55;;
22429;SDS011;11382;48.086;11.632;2023-06-19T04:25:52;10.40;;;9.25;;
22429;SDS011;11382;48.086;11.632;2023-06-19T04:28:20;10.88;;;9.32;;
22429;SDS011;11382;48.086;11.632;2023-06-19T04:30:51;14.27;;;10.02;;
22429;SDS011;11382;48.086;11.632;2023-06-19T04:33:26;11.45;;;9.55;;
22429;SDS011;11382;48.086;11.632;2023-06-19T04:35:55;12.90;;;10.10;;
22429;SDS011;11382;48.086;11.632;2023-06-19T04:38:23;12.48;;;9.70;;
22429;SDS011;11382;48.086;11.632;2023-06-19T04:40:51;10.95;;;9.23;;
22429;SDS011;11382;48.086;11.632;2023-06-19T04:43:19;11.27;;;9.65;;
22429;SDS011;11382;48.086;11.632;2023-06-19T04:45:47;15.95;;;10.07;;
22429;SDS011;11382;48.086;11.632;2023-06-19T04:48:17;14.18;;;10.00;;
22429;SDS011;11382;48.086;11.632;2023-06-19T04:50:45;11.75;;;9.68;;
22429;SDS011;11382;48.086;11.632;2023-06-19T04:53:13;12.77;;;9.68;;
22429;SDS011;11382;48.086;11.632;2023-06-19T04:55:41;12.50;;;9.48;;
22429;SDS011;11382;48.086;11.632;2023-06-19T04:58:09;10.80;;;9.43;;
22429;SDS011;11382;48.086;11.632;2023-06-19T05:00:37;14.48;;;10.02;;
22429;SDS011;11382;48.086;11.632;2023-06-19T05:03:06;12.68;;;9.60;;
22429;SDS011;11382;48.086;11.632;2023-06-19T05:05:37;12.10;;;9.70;;
22429;SDS011;11382;48.086;11.632;2023-06-19T05:08:06;13.05;;;9.82;;
22429;SDS011;11382;48.086;11.632;2023-06-19T05:10:34;12.48;;;9.52;;
22429;SDS011;11382;48.086;11.632;2023-06-19T05:13:03;16.60;;;9.68;;
22429;SDS011;11382;48.086;11.632;2023-06-19T05:15:31;12.35;;;9.60;;
22429;SDS011;11382;48.086;11.632;2023-06-19T05:17:59;14.82;;;9.77;;
22429;SDS011;11382;48.086;11.632;2023-06-19T05:20:27;13.05;;;9.65;;
22429;SDS011;11382;48.086;11.632;2023-06-19T05:22:57;13.05;;;9.27;;
22429;SDS011;11382;48.086;11.632;2023-06-19T05:25:25;16.58;;;9.70;;
22429;SDS011;11382;48.086;11.632;2023-06-19T05:27:53;14.02;;;9.32;;
22429;SDS011;11382;48.086;11.632;2023-06-19T05:30:22;12.75;;;9.93;;
22429;SDS011;11382;48.086;11.632;2023-06-19T05:32:51;1999.90;;;999.90;;
22429;SDS011;11382;48.086;11.632;2023-06-19T05:35:19;12.95;;;9.68;;
22429;SDS011;11382;48.086;11.632;2023-06-19T05:37:47;12.20;;;9.50;;
22429;SDS011;11382;48.086;11.632;2023-06-19T05:40:17;15.40;;;11.00;;
22429;SDS011;11382;48.086;11.632;2023-06-19T05:42:45;14.13;;;10.10;;
22429;SDS011;11382;48.086;11.632;2023-06-19T05:45:13;13.15;;;10.13;;
22429;SDS011;11382;48.086;11.632;2023-06-19T05:47:41;15.68;;;10.18;;
22429;SDS011;11382;48.086;11.632;2023-06-19T05:50:09;12.27;;;10.02;;
22429;SDS011;11382;48.086;11.632;2023-06-19T05:52:38;16.25;;;10.57;;
22429;SDS011;11382;48.086;11.632;2023-06-19T05:55:09;15.55;;;10.52;;
22429;SDS011;11382;48.086;11.632;2023-06-19T05:57:38;13.30;;;10.13;;
22429;SDS011;11382;48.086;11.632;2023-06-19T06:00:07;13.90;;;9.98;;
22429;SDS011;11382;48.086;11.632;2023-06-19T06:02:38;17.98;;;9.82;;
22429;SDS011;11382;48.086;11.632;2023-06-19T06:05:06;11.77;;;9.30;;
22429;SDS011;11382;48.086;11.632;2023-06-19T06:07:36;16.48;;;9.48;;
22429;SDS011;11382;48.086;11.632;2023-06-19T06:10:07;11.25;;;8.90;;
22429;SDS011;11382;48.086;11.632;2023-06-19T06:12:35;13.55;;;9.20;;
22429;SDS011;11382;48.086;11.632;2023-06-19T06:15:05;12.10;;;10.10;;
22429;SDS011;11382;48.086;11.632;2023-06-19T06:17:34;14.43;;;9.27;;
22429;SDS011;11382;48.086;11.632;2023-06-19T06:20:02;12.75;;;9.20;;
22429;SDS011;11382;48.086;11.632;2023-06-19T06:22:36;1999.90;;;999.90;;
22429;SDS011;11382;48.086;11.632;2023-06-19T06:25:04;1999.90;;;999.90;;
22429;SDS011;11382;48.086;11.632;2023-06-19T06:27:33;1999.90;;;999.90;;
22429;SDS011;11382;48.086;11.632;2023-06-19T06:30:02;1999.90;;;999.90;;
22429;SDS011;11382;48.086;11.632;2023-06-19T06:32:31;1999.90;;;999.90;;
22429;SDS011;11382;48.086;11.632;2023-06-19T06:35:01;1999.90;;;999.90;;
22429;SDS011;11382;48.086;11.632;2023-06-19T06:37:29;1999.90;;;999.90;;
22429;SDS011;11382;48.086;11.632;2023-06-19T06:39:58;1999.90;;;999.90;;
22429;SDS011;11382;48.086;11.632;2023-06-19T06:42:26;1999.90;;;999.90;;
22429;SDS011;11382;48.086;11.632;2023-06-19T06:44:54;1999.90;;;999.90;;
22429;SDS011;11382;48.086;11.632;2023-06-19T06:47:22;1999.90;;;999.90;;
22429;SDS011;11382;48.086;11.632;2023-06-19T06:49:52;1999.90;;;999.90;;
22429;SDS011;11382;48.086;11.632;2023-06-19T06:52:20;1999.90;;;999.90;;
22429;SDS011;11382;48.086;11.632;2023-06-19T06:54:48;1999.90;;;999.90;;
22429;SDS011;11382;48.086;11.632;2023-06-19T06:57:16;1999.90;;;999.90;;
22429;SDS011;11382;48.086;11.632;2023-06-19T06:59:44;1999.90;;;999.90;;
22429;SDS011;11382;48.086;11.632;2023-06-19T07:02:12;1999.90;;;999.90;;
22429;SDS011;11382;48.086;11.632;2023-06-19T07:04:41;1999.90;;;999.90;;
22429;SDS011;11382;48.086;11.632;2023-06-19T07:07:11;1999.90;;;999.90;;
22429;SDS011;11382;48.086;11.632;2023-06-19T07:09:39;1999.90;;;999.90;;
22429;SDS011;11382;48.086;11.632;2023-06-19T07:12:07;1999.90;;;999.90;;
22429;SDS011;11382;48.086;11.632;2023-06-19T07:14:36;1999.90;;;999.90;;
22429;SDS011;11382;48.086;11.632;2023-06-19T07:17:04;1999.90;;;999.90;;
22429;SDS011;11382;48.086;11.632;2023-06-19T07:19:33;1999.90;;;999.90;;
22429;SDS011;11382;48.086;11.632;2023-06-19T07:22:02;1999.90;;;999.90;;
22429;SDS011;11382;48.086;11.632;2023-06-19T07:24:32;1999.90;;;999.90;;
22429;SDS011;11382;48.086;11.632;2023-06-19T07:27:02;1999.90;;;999.90;;
22429;SDS011;11382;48.086;11.632;2023-06-19T07:29:30;1999.90;;;999.90;;
22429;SDS011;11382;48.086;11.632;2023-06-19T07:31:58;1999.90;;;999.90;;
22429;SDS011;11382;48.086;11.632;2023-06-19T07:34:30;1999.90;;;999.90;;
22429;SDS011;11382;48.086;11.632;2023-06-19T07:36:58;1999.90;;;999.90;;
22429;SDS011;11382;48.086;11.632;2023-06-19T07:39:27;1999.90;;;999.90;;
22429;SDS011;11382;48.086;11.632;2023-06-19T07:41:56;1999.90;;;999.90;;
22429;SDS011;11382;48.086;11.632;2023-06-19T07:44:24;1999.90;;;999.90;;
22429;SDS011;11382;48.086;11.632;2023-06-19T07:46:52;1999.90;;;999.90;;
22429;SDS011;11382;48.086;11.632;2023-06-19T07:49:21;7.00;;;6.40;;
22429;SDS011;11382;48.086;11.632;2023-06-19T07:51:49;8.35;;;6.07;;
22429;SDS011;11382;48.086;11.632;2023-06-19T07:54:17;6.63;;;6.03;;
22429;SDS011;11382;48.086;11.632;2023-06-19T07:56:45;6.90;;;6.22;;
22429;SDS011;11382;48.086;11.632;2023-06-19T07:59:14;7.07;;;6.47;;
22429;SDS011;11382;48.086;11.632;2023-06-19T08:01:43;8.25;;;6.25;;
22429;SDS011;11382;48.086;11.632;2023-06-19T08:04:11;6.50;;;5.90;;
22429;SDS011;11382;48.086;11.632;2023-06-19T08:06:40;6.10;;;5.50;;
22429;SDS011;11382;48.086;11.632;2023-06-19T08:09:08;6.13;;;5.53;;
22429;SDS011;11382;48.086;11.632;2023-06-19T08:11:36;6.05;;;5.45;;
22429;SDS011;11382;48.086;11.632;2023-06-19T08:14:06;6.57;;;5.45;;
22429;SDS011;11382;48.086;11.632;2023-06-19T08:16:35;6.25;;;5.15;;
22429;SDS011;11382;48.086;11.632;2023-06-19T08:19:03;6.68;;;5.57;;
22429;SDS011;11382;48.086;11.632;2023-06-19T08:21:32;6.43;;;5.50;;
22429;SDS011;11382;48.086;11.632;2023-06-19T08:23:59;5.30;;;4.70;;
22429;SDS011;11382;48.086;11.632;2023-06-19T08:26:28;7.65;;;5.07;;
22429;SDS011;11382;48.086;11.632;2023-06-19T08:28:56;4.53;;;4.13;;
22429;SDS011;11382;48.086;11.632;2023-06-19T08:31:24;5.35;;;4.70;;
22429;SDS011;11382;48.086;11.632;2023-06-19T08:33:55;5.57;;;4.60;;
22429;SDS011;11382;48.086;11.632;2023-06-19T08:36:23;6.57;;;5.22;;
22429;SDS011;11382;48.086;11.632;2023-06-19T08:38:51;6.88;;;5.10;;
22429;SDS011;11382;48.086;11.632;2023-06-19T08:41:19;7.35;;;5.28;;
22429;SDS011;11382;48.086;11.632;2023-06-19T08:43:48;7.00;;;5.43;;
22429;SDS011;11382;48.086;11.632;2023-06-19T08:46:16;5.82;;;5.15;;
22429;SDS011;11382;48.086;11.632;2023-06-19T08:48:49;7.40;;;5.93;;
22429;SDS011;11382;48.086;11.632;2023-06-19T08:51:18;6.32;;;5.57;;
22429;SDS011;11382;48.086;11.632;2023-06-19T08:53:47;6.60;;;5.50;;
22429;SDS011;11382;48.086;11.632;2023-06-19T08:56:21;7.07;;;5.38;;
22429;SDS011;11382;48.086;11.632;2023-06-19T08:58:49;6.32;;;5.20;;
22429;SDS011;11382;48.086;11.632;2023-06-19T09:01:17;7.60;;;5.30;;
22429;SDS011;11382;48.086;11.632;2023-06-19T09:03:46;6.13;;;5.40;;
22429;SDS011;11382;48.086;11.632;2023-06-19T09:06:20;5.30;;;4.55;;
22429;SDS011;11382;48.086;11.632;2023-06-19T09:08:57;5.13;;;4.63;;
22429;SDS011;11382;48.086;11.632;2023-06-19T09:11:26;5.72;;;4.75;;
22429;SDS011;11382;48.086;11.632;2023-06-19T09:13:56;7.47;;;3.95;;
22429;SDS011;11382;48.086;11.632;2023-06-19T09:16:28;4.63;;;4.22;;
22429;SDS011;11382;48.086;11.632;2023-06-19T09:19:04;5.63;;;4.35;;
22429;SDS011;11382;48.086;11.632;2023-06-19T09:21:36;4.28;;;3.97;;
22429;SDS011;11382;48.086;11.632;2023-06-19T09:24:05;4.90;;;4.40;;
22429;SDS011;11382;48.086;11.632;2023-06-19T09:26:35;4.93;;;3.83;;
22429;SDS011;11382;48.086;11.632;2023-06-19T09:29:10;4.68;;;4.25;;
22429;SDS011;11382;48.086;11.632;2023-06-19T09:31:42;4.85;;;4.35;;
22429;SDS011;11382;48.086;11.632;2023-06-19T09:34:10;4.55;;;3.80;;
22429;SDS011;11382;48.086;11.632;2023-06-19T09:36:40;4.88;;;4.47;;
22429;SDS011;11382;48.086;11.632;2023-06-19T09:39:08;4.57;;;4.07;;
22429;SDS011;11382;48.086;11.632;2023-06-19T09:41:38;4.55;;;4.13;;
22429;SDS011;11382;48.086;11.632;2023-06-19T09:44:08;4.65;;;4.15;;
22429;SDS011;11382;48.086;11.632;2023-06-19T09:49:11;4.05;;;3.00;;
22429;SDS011;11382;48.086;11.632;2023-06-19T09:51:43;3.92;;;3.30;;
22429;SDS011;11382;48.086;11.632;2023-06-19T09:54:12;5.50;;;3.78;;
22429;SDS011;11382;48.086;11.632;2023-06-19T09:56:43;29.48;;;5.25;;
22429;SDS011;11382;48.086;11.632;2023-06-19T09:59:12;10.30;;;4.07;;
22429;SDS011;11382;48.086;11.632;2023-06-19T10:01:40;4.22;;;3.83;;
22429;SDS011;11382;48.086;11.632;2023-06-19T10:04:10;5.25;;;3.67;;
22429;SDS011;11382;48.086;11.632;2023-06-19T10:06:44;17.15;;;4.45;;
22429;SDS011;11382;48.086;11.632;2023-06-19T10:09:13;5.65;;;3.60;;
22429;SDS011;11382;48.086;11.632;2023-06-19T10:11:45;15.98;;;4.80;;
22429;SDS011;11382;48.086;11.632;2023-06-19T10:14:18;7.18;;;3.85;;
22429;SDS011;11382;48.086;11.632;2023-06-19T10:16:52;6.32;;;4.05;;
22429;SDS011;11382;48.086;11.632;2023-06-19T10:19:20;9.27;;;4.75;;
22429;SDS011;11382;48.086;11.632;2023-06-19T10:21:52;13.05;;;5.18;;
22429;SDS011;11382;48.086;11.632;2023-06-19T10:24:27;4.88;;;4.35;;
22429;SDS011;11382;48.086;11.632;2023-06-19T10:26:56;8.85;;;4.82;;
22429;SDS011;11382;48.086;11.632;2023-06-19T10:29:26;6.15;;;5.30;;
22429;SDS011;11382;48.086;11.632;2023-06-19T10:32:06;7.07;;;4.50;;
22429;SDS011;11382;48.086;11.632;2023-06-19T10:34:34;5.68;;;4.65;;
22429;SDS011;11382;48.086;11.632;2023-06-19T10:37:07;5.10;;;4.60;;
22429;SDS011;11382;48.086;11.632;2023-06-19T10:39:37;5.28;;;4.50;;
22429;SDS011;11382;48.086;11.632;2023-06-19T10:42:06;5.28;;;4.78;;
22429;SDS011;11382;48.086;11.632;2023-06-19T10:44:35;5.15;;;4.70;;
22429;SDS011;11382;48.086;11.632;2023-06-19T10:47:04;100.15;;;17.70;;
22429;SDS011;11382;48.086;11.632;2023-06-19T10:49:34;5.45;;;4.93;;
22429;SDS011;11382;48.086;11.632;2023-06-19T10:52:02;5.78;;;5.20;;
22429;SDS011;11382;48.086;11.632;2023-06-19T10:54:33;6.72;;;5.03;;
22429;SDS011;11382;48.086;11.632;2023-06-19T10:57:03;5.38;;;4.88;;
22429;SDS011;11382;48.086;11.632;2023-06-19T10:59:33;7.07;;;5.78;;
22429;SDS011;11382;48.086;11.632;2023-06-19T11:02:02;6.15;;;5.57;;
22429;SDS011;11382;48.086;11.632;2023-06-19T11:04:32;6.60;;;6.00;;
22429;SDS011;11382;48.086;11.632;2023-06-19T11:07:08;6.88;;;5.38;;
22429;SDS011;11382;48.086;11.632;2023-06-19T11:09:36;7.13;;;5.43;;
22429;SDS011;11382;48.086;11.632;2023-06-19T11:12:04;8.70;;;6.00;;
22429;SDS011;11382;48.086;11.632;2023-06-19T11:14:35;6.70;;;6.05;;
22429;SDS011;11382;48.086;11.632;2023-06-19T11:17:08;9.35;;;5.45;;
22429;SDS011;11382;48.086;11.632;2023-06-19T11:19:36;41.40;;;9.77;;
22429;SDS011;11382;48.086;11.632;2023-06-19T11:22:10;8.35;;;5.55;;
22429;SDS011;11382;48.086;11.632;2023-06-19T11:24:43;6.60;;;5.90;;
22429;SDS011;11382;48.086;11.632;2023-06-19T11:27:19;120.50;;;17.52;;
22429;SDS011;11382;48.086;11.632;2023-06-19T11:29:58;14.20;;;6.22;;
22429;SDS011;11382;48.086;11.632;2023-06-19T11:32:30;8.07;;;5.50;;
22429;SDS011;11382;48.086;11.632;2023-06-19T11:35:04;6.50;;;5.75;;
22429;SDS011;11382;48.086;11.632;2023-06-19T11:37:36;5.03;;;4.63;;
22429;SDS011;11382;48.086;11.632;2023-06-19T11:40:05;5.10;;;4.60;;
22429;SDS011;11382;48.086;11.632;2023-06-19T11:42:45;4.70;;;4.20;;
22429;SDS011;11382;48.086;11.632;2023-06-19T11:45:15;4.15;;;3.85;;
22429;SDS011;11382;48.086;11.632;2023-06-19T11:47:46;6.50;;;4.10;;
22429;SDS011;11382;48.086;11.632;2023-06-19T11:50:15;5.00;;;4.15;;
22429;SDS011;11382;48.086;11.632;2023-06-19T11:52:47;6.43;;;4.13;;
22429;SDS011;11382;48.086;11.632;2023-06-19T11:55:18;4.47;;;3.67;;
22429;SDS011;11382;48.086;11.632;2023-06-19T11:57:46;5.68;;;4.05;;
22429;SDS011;11382;48.086;11.632;2023-06-19T12:00:15;5.82;;;4.45;;
22429;SDS011;11382;48.086;11.632;2023-06-19T12:02:46;5.22;;;4.63;;
22429;SDS011;11382;48.086;11.632;2023-06-19T12:05:17;5.90;;;4.50;;
22429;SDS011;11382;48.086;11.632;2023-06-19T12:07:48;5.03;;;4.32;;
22429;SDS011;11382;48.086;11.632;2023-06-19T12:10:18;5.20;;;4.07;;
22429;SDS011;11382;48.086;11.632;2023-06-19T12:12:48;6.75;;;4.32;;
22429;SDS011;11382;48.086;11.632;2023-06-19T12:15:16;5.13;;;4.60;;
22429;SDS011;11382;48.086;11.632;2023-06-19T12:17:45;6.18;;;4.22;;
22429;SDS011;11382;48.086;11.632;2023-06-19T12:20:14;4.53;;;4.13;;
22429;SDS011;11382;48.086;11.632;2023-06-19T12:22:42;5.88;;;4.35;;
22429;SDS011;11382;48.086;11.632;2023-06-19T12:25:14;4.65;;;3.90;;
22429;SDS011;11382;48.086;11.632;2023-06-19T12:27:43;6.30;;;4.72;;
22429;SDS011;11382;48.086;11.632;2023-06-19T12:30:12;4.85;;;4.20;;
22429;SDS011;11382;48.086;11.632;2023-06-19T12:32:40;4.60;;;4.20;;
22429;SDS011;11382;48.086;11.632;2023-06-19T12:35:08;5.65;;;4.75;;
22429;SDS011;11382;48.086;11.632;2023-06-19T12:37:37;6.00;;;4.70;;
22429;SDS011;11382;48.086;11.632;2023-06-19T12:40:05;5.05;;;4.47;;
22429;SDS011;11382;48.086;11.632;2023-06-19T12:42:39;5.72;;;4.20;;
22429;SDS011;11382;48.086;11.632;2023-06-19T12:45:08;5.40;;;4.45;;
22429;SDS011;11382;48.086;11.632;2023-06-19T12:47:45;4.68;;;4.28;;
22429;SDS011;11382;48.086;11.632;2023-06-19T12:50:13;6.47;;;4.60;;
22429;SDS011;11382;48.086;11.632;2023-06-19T12:52:44;5.30;;;4.40;;
22429;SDS011;11382;48.086;11.632;2023-06-19T12:55:12;5.40;;;4.40;;
22429;SDS011;11382;48.086;11.632;2023-06-19T12:57:41;7.53;;;4.53;;
22429;SDS011;11382;48.086;11.632;2023-06-19T13:00:11;7.10;;;4.18;;
22429;SDS011;11382;48.086;11.632;2023-06-19T13:02:40;5.88;;;4.60;;
22429;SDS011;11382;48.086;11.632;2023-06-19T13:05:10;6.13;;;4.20;;
22429;SDS011;11382;48.086;11.632;2023-06-19T13:07:37;4.72;;;4.22;;
22429;SDS011;11382;48.086;11.632;2023-06-19T13:10:06;7.05;;;4.65;;
22429;SDS011;11382;48.086;11.632;2023-06-19T13:12:34;4.32;;;3.88;;
22429;SDS011;11382;48.086;11.632;2023-06-19T13:15:04;5.03;;;4.18;;
22429;SDS011;11382;48.086;11.632;2023-06-19T13:17:33;6.57;;;4.53;;
22429;SDS011;11382;48.086;11.632;2023-06-19T13:20:02;4.60;;;4.20;;
22429;SDS011;11382;48.086;11.632;2023-06-19T13:22:31;4.88;;;4.47;;
22429;SDS011;11382;48.086;11.632;2023-06-19T13:25:00;6.20;;;4.68;;
22429;SDS011;11382;48.086;11.632;2023-06-19T13:27:28;5.05;;;4.55;;
22429;SDS011;11382;48.086;11.632;2023-06-19T13:29:59;4.85;;;4.35;;
22429;SDS011;11382;48.086;11.632;2023-06-19T13:32:30;5.05;;;4.55;;
22429;SDS011;11382;48.086;11.632;2023-06-19T13:34:58;6.25;;;4.50;;
22429;SDS011;11382;48.086;11.632;2023-06-19T13:37:26;4.30;;;3.90;;
22429;SDS011;11382;48.086;11.632;2023-06-19T13:39:54;5.35;;;4.60;;
22429;SDS011;11382;48.086;11.632;2023-06-19T13:42:22;4.60;;;4.13;;
22429;SDS011;11382;48.086;11.632;2023-06-19T13:44:50;5.80;;;4.18;;
22429;SDS011;11382;48.086;11.632;2023-06-19T13:47:19;5.05;;;4.55;;
22429;SDS011;11382;48.086;11.632;2023-06-19T13:49:50;7.40;;;4.22;;
22429;SDS011;11382;48.086;11.632;2023-06-19T13:52:18;4.95;;;4.55;;
22429;SDS011;11382;48.086;11.632;2023-06-19T13:54:46;7.72;;;4.47;;
22429;SDS011;11382;48.086;11.632;2023-06-19T13:57:19;5.40;;;4.90;;
22429;SDS011;11382;48.086;11.632;2023-06-19T13:59:48;5.70;;;5.10;;
22429;SDS011;11382;48.086;11.632;2023-06-19T14:02:19;6.72;;;4.72;;
22429;SDS011;11382;48.086;11.632;2023-06-19T14:04:51;6.13;;;4.78;;
22429;SDS011;11382;48.086;11.632;2023-06-19T14:07:19;5.47;;;4.93;;
22429;SDS011;11382;48.086;11.632;2023-06-19T14:09:48;5.20;;;4.70;;
22429;SDS011;11382;48.086;11.632;2023-06-19T14:12:16;4.90;;;4.40;;
22429;SDS011;11382;48.086;11.632;2023-06-19T14:14:44;5.55;;;4.50;;
22429;SDS011;11382;48.086;11.632;2023-06-19T14:17:13;5.25;;;4.55;;
22429;SDS011;11382;48.086;11.632;2023-06-19T14:19:41;5.00;;;3.90;;
22429;SDS011;11382;48.086;11.632;2023-06-19T14:22:11;5.43;;;4.30;;
22429;SDS011;11382;48.086;11.632;2023-06-19T14:24:39;7.45;;;4.40;;
22429;SDS011;11382;48.086;11.632;2023-06-19T14:27:07;5.75;;;5.13;;
22429;SDS011;11382;48.086;11.632;2023-06-19T14:29:35;5.90;;;4.53;;
22429;SDS011;11382;48.086;11.632;2023-06-19T14:32:03;5.15;;;4.50;;
22429;SDS011;11382;48.086;11.632;2023-06-19T14:34:31;5.30;;;4.80;;
22429;SDS011;11382;48.086;11.632;2023-06-19T14:36:59;6.78;;;5.05;;